Aérodrome :
LOGIN :

S'inscrire | Disclaimer

   EN    FR    IT 

 










Légende :    VFR   VFR Marginal   IFR   IFR Intensif   IFR Très Intensif
Visi : 
Plafond : 
>= 8 km
>= 3000ft
5 à 8 km
1000 à 3000 ft
1500m à 5 km
500 à 1000 ft
800 à 1500m
200 à 500 ft
< 800m
< 200 ft
Symboles :   Orages  Brouillard  Fortes neiges  Fortes précipitations  Vent > 20 kt
SIGMETs :   Divers  Orages  Givrage  Turbulence  Onde Orograph.  Cendres Volcan.






- Altitude de l'aérodrome : -15 ft
- Code IATA : RTM


EHRD - Rotterdam Zestienhoven

DERNIER METAR :
  • 010155Z AUTO 34001KT 9999 NCD M01/M02 Q1026 NOSIG

METARs EXPIRÉS :
  • 010125Z AUTO 34002KT 9999 NCD M01/M02 Q1026 NOSIG
  • 010055Z AUTO 36002KT 9999 NCD M01/M01 Q1027 NOSIG
  • 010025Z AUTO 36001KT 9999 NCD 00/M01 Q1027 NOSIG
  • 312355Z AUTO 36001KT 9999 NCD 01/M02 Q1027 NOSIG
  • 312325Z AUTO 36003KT 9999 NCD 01/M02 Q1028 NOSIG

TAF TAF EHRD
Valide du 01 à 00h jusqu'au 02 à 06h UTC


312303Z 0100/0206 VRB03KT CAVOK
BECMG 0111/0114 29010KT
BECMG 0120/0123 24005KT
PROB30
TEMPO 0200/0206 3000 BR



MET'MAP, la Météo Aéronautique d'un coup d'oeil ! - Copyright ORBIFLY Décembre 2007 - Disclaimer

ORBIFLY MET'MAP TEAM :

Programmation & Développement : Alexandra Zaïnal
Sur une idée originale de : Baudouin d'Aumeries
Assistance à la programmation : Marc-Olivier Méhu
Soutien technique & logistique : Manuel Goepfert

Contact : metmap@orbifly.com




SOURCES & CREDITS :

   NOAA